createdAt,value
2019-01-06T00:01:34.187Z,100441.63
2019-01-06T00:04:17.014Z,100440.70
2019-01-06T00:07:14.133Z,100440.41
2019-01-06T00:10:01.036Z,100430.36
2019-01-06T00:12:39.621Z,100429.22
2019-01-06T00:15:26.667Z,100426.64
2019-01-06T00:18:17.417Z,100418.12
2019-01-06T00:21:14.670Z,100425.73
2019-01-06T00:24:01.421Z,100417.48
2019-01-06T00:26:48.119Z,100411.41
2019-01-06T00:29:35.040Z,100417.75
2019-01-06T00:32:29.139Z,100417.36
2019-01-06T00:35:32.307Z,100421.08
2019-01-06T00:38:38.461Z,100428.46
2019-01-06T00:41:29.263Z,100422.47
2019-01-06T00:44:16.109Z,100427.05
2019-01-06T00:47:05.807Z,100422.89
2019-01-06T00:49:56.635Z,100435.77
2019-01-06T00:52:59.560Z,100433.81
2019-01-06T00:55:48.205Z,100432.42
2019-01-06T00:58:34.751Z,100432.31
2019-01-06T01:01:28.864Z,100428.78
2019-01-06T01:04:15.498Z,100430.48
2019-01-06T01:07:02.120Z,100424.28
2019-01-06T01:09:51.034Z,100426.20
2019-01-06T01:12:37.821Z,100431.77
2019-01-06T01:15:23.187Z,100423.77
2019-01-06T01:18:09.924Z,100432.40
2019-01-06T01:21:05.174Z,100438.56
2019-01-06T01:23:58.668Z,100440.38
2019-01-06T01:26:48.527Z,100434.21
2019-01-06T01:29:35.327Z,100416.47
2019-01-06T01:32:22.359Z,100408.66
2019-01-06T01:35:00.405Z,100426.61
2019-01-06T01:37:41.765Z,100432.36
2019-01-06T01:40:32.790Z,100444.30
2019-01-06T01:43:20.787Z,100448.06
2019-01-06T01:46:07.469Z,100469.12
2019-01-06T01:49:01.716Z,100460.53
2019-01-06T01:51:52.479Z,100465.20
2019-01-06T01:54:50.866Z,100463.08
2019-01-06T01:57:33.247Z,100463.73
2019-01-06T02:00:30.555Z,100460.44
2019-01-06T02:03:21.631Z,100461.91
2019-01-06T02:06:12.588Z,100460.08
2019-01-06T02:09:12.831Z,100445.70
2019-01-06T02:12:12.946Z,100446.42
2019-01-06T02:14:59.455Z,100444.53
2019-01-06T02:17:46.161Z,100452.39
2019-01-06T02:20:30.736Z,100469.62
2019-01-06T02:23:24.675Z,100468.91
2019-01-06T02:26:27.807Z,100461.82
2019-01-06T02:29:14.452Z,100460.94
2019-01-06T02:32:02.523Z,100470.31
2019-01-06T02:35:10.625Z,100472.97
2019-01-06T02:38:07.591Z,100406.87
2019-01-06T02:40:54.213Z,100472.30
2019-01-06T02:43:51.016Z,100469.80
2019-01-06T02:46:37.684Z,100471.37
2019-01-06T02:49:35.632Z,100477.07
2019-01-06T02:52:22.288Z,100475.30
2019-01-06T02:55:08.920Z,100471.41
2019-01-06T02:57:55.620Z,100464.03
2019-01-06T03:00:43.585Z,100467.22
2019-01-06T03:03:34.363Z,100468.69
2019-01-06T03:06:28.195Z,100470.95
2019-01-06T03:09:14.707Z,100463.43
2019-01-06T03:12:05.811Z,100467.59
2019-01-06T03:14:49.527Z,100456.06
2019-01-06T03:17:37.768Z,100448.72
2019-01-06T03:20:28.528Z,100454.41
2019-01-06T03:23:16.554Z,100449.09
2019-01-06T03:26:10.568Z,100455.04
2019-01-06T03:28:57.408Z,100465.28
2019-01-06T03:31:42.522Z,100464.21
2019-01-06T03:34:26.531Z,100461.44
2019-01-06T03:37:18.058Z,100470.03
2019-01-06T03:40:09.598Z,100456.70
2019-01-06T03:43:00.682Z,100461.58
2019-01-06T03:45:47.675Z,100461.02
2019-01-06T03:48:38.402Z,100459.55
2019-01-06T03:51:27.028Z,100466.59
2019-01-06T03:54:14.963Z,100473.73
2019-01-06T03:57:12.100Z,100473.10
2019-01-06T04:00:00.799Z,100470.25
2019-01-06T04:02:48.972Z,100456.30
2019-01-06T04:05:35.277Z,100453.97
2019-01-06T04:08:41.325Z,100459.99
2019-01-06T04:11:27.833Z,100457.21
2019-01-06T04:14:18.808Z,100455.97
2019-01-06T04:17:06.097Z,100444.87
2019-01-06T04:19:56.809Z,100440.47
2019-01-06T04:22:57.467Z,100447.61
2019-01-06T04:25:44.088Z,100443.98
2019-01-06T04:28:32.246Z,100444.16
2019-01-06T04:31:32.330Z,100444.03
2019-01-06T04:34:32.298Z,100443.95
2019-01-06T04:37:38.493Z,100434.80
2019-01-06T04:40:26.098Z,100443.15
2019-01-06T04:43:21.390Z,100435.41
2019-01-06T04:46:07.946Z,100423.87
2019-01-06T04:49:04.736Z,100428.73
2019-01-06T04:51:58.219Z,100430.03
2019-01-06T04:54:58.462Z,100421.14
2019-01-06T04:57:50.845Z,100424.26
2019-01-06T05:00:37.986Z,100435.03
2019-01-06T05:03:32.367Z,100435.58
2019-01-06T05:06:20.269Z,100430.16
2019-01-06T05:09:07.068Z,100429.84
2019-01-06T05:11:57.876Z,100428.34
2019-01-06T05:14:44.493Z,100424.83
2019-01-06T05:17:34.154Z,100421.77
2019-01-06T05:20:20.803Z,100420.32
2019-01-06T05:23:24.055Z,100418.98
2019-01-06T05:26:12.071Z,100423.78
2019-01-06T05:29:13.583Z,100427.21
2019-01-06T05:32:05.901Z,100426.01
2019-01-06T05:35:03.121Z,100424.41
2019-01-06T05:37:46.149Z,100416.11
2019-01-06T05:40:32.826Z,100407.08
2019-01-06T05:43:32.708Z,100407.08
2019-01-06T05:46:19.216Z,100412.42
2019-01-06T05:49:15.624Z,100421.09
2019-01-06T05:51:58.336Z,100429.86
2019-01-06T05:55:00.557Z,100423.36
2019-01-06T05:58:01.662Z,100434.89
2019-01-06T06:00:56.157Z,100431.94
2019-01-06T06:03:46.942Z,100439.88
2019-01-06T06:06:33.887Z,100440.45
2019-01-06T06:09:16.530Z,100440.72
2019-01-06T06:12:03.022Z,100435.96
2019-01-06T06:14:51.484Z,100431.81
2019-01-06T06:17:54.636Z,100444.20
2019-01-06T06:20:48.647Z,100442.32
2019-01-06T06:23:38.770Z,100436.13
2019-01-06T06:26:26.865Z,100441.84
2019-01-06T06:29:20.547Z,100446.77
2019-01-06T06:32:17.930Z,100454.64
2019-01-06T06:35:21.049Z,100455.13
2019-01-06T06:38:11.791Z,100455.13
2019-01-06T06:40:59.871Z,100449.40
2019-01-06T06:44:00.057Z,100454.10
2019-01-06T06:46:48.111Z,100450.22
2019-01-06T06:49:34.610Z,100448.92
2019-01-06T06:52:22.608Z,100451.02
2019-01-06T06:55:11.286Z,100444.41
2019-01-06T06:58:38.444Z,100444.98
2019-01-06T07:01:54.689Z,100444.32
2019-01-06T07:04:41.527Z,100449.38
2019-01-06T07:07:35.818Z,100455.59
2019-01-06T07:10:22.937Z,100453.58
2019-01-06T07:13:26.315Z,100464.71
2019-01-06T07:16:23.587Z,100476.20
2019-01-06T07:19:17.376Z,100476.98
2019-01-06T07:22:14.221Z,100481.02
2019-01-06T07:25:11.158Z,100482.59
2019-01-06T07:27:59.170Z,100482.11
2019-01-06T07:30:45.306Z,100483.27
2019-01-06T07:33:21.896Z,100485.42
2019-01-06T07:36:12.871Z,100496.98
2019-01-06T07:38:56.717Z,100501.39
2019-01-06T07:41:43.797Z,100505.98
2019-01-06T07:44:30.828Z,100513.72
2019-01-06T07:47:27.745Z,100511.38
2019-01-06T07:50:15.777Z,100512.89
2019-01-06T07:53:02.382Z,100518.20
2019-01-06T07:55:46.531Z,100526.27
2019-01-06T07:58:52.976Z,100525.70
2019-01-06T08:01:39.634Z,100533.67
2019-01-06T08:04:51.619Z,100528.87
2019-01-06T08:08:07.215Z,100532.46
2019-01-06T08:11:01.335Z,100504.84
2019-01-06T08:14:04.786Z,100529.99
2019-01-06T08:16:51.596Z,100535.91
2019-01-06T08:19:57.822Z,100534.17
2019-01-06T08:22:48.556Z,100536.14
2019-01-06T08:25:40.806Z,100533.20
2019-01-06T08:28:41.391Z,100532.83
2019-01-06T08:31:32.551Z,100535.96
2019-01-06T08:34:22.531Z,100537.97
2019-01-06T08:37:28.292Z,100544.08
2019-01-06T08:40:17.495Z,100549.70
2019-01-06T08:43:26.136Z,100548.80
2019-01-06T08:46:12.796Z,100553.75
2019-01-06T08:48:59.582Z,100561.11
2019-01-06T08:51:46.590Z,100560.55
2019-01-06T08:54:38.072Z,100561.26
2019-01-06T08:57:38.305Z,100571.17
2019-01-06T09:00:29.732Z,100571.42
2019-01-06T09:03:29.857Z,100566.14
2019-01-06T09:06:33.225Z,100568.95
2019-01-06T09:09:45.776Z,100568.94
2019-01-06T09:12:43.229Z,100564.12
2019-01-06T09:15:39.728Z,100572.11
2019-01-06T09:18:25.994Z,100582.91
2019-01-06T09:21:20.400Z,100573.86
2019-01-06T09:24:20.655Z,100575.69
2019-01-06T09:27:07.930Z,100569.95
2019-01-06T09:29:56.478Z,100574.30
2019-01-06T09:32:54.493Z,100571.74
2019-01-06T09:35:54.522Z,100569.78
2019-01-06T09:38:46.095Z,100573.73
2019-01-06T09:41:29.803Z,100576.50
2019-01-06T09:44:38.260Z,100581.58
2019-01-06T09:47:41.300Z,100578.58
2019-01-06T09:50:27.844Z,100586.30
2019-01-06T09:53:19.100Z,100582.43
2019-01-06T09:56:17.901Z,100578.89
2019-01-06T09:59:21.414Z,100580.09
2019-01-06T10:02:09.646Z,100578.56
2019-01-06T10:05:12.797Z,100570.02
2019-01-06T10:07:59.829Z,100568.53
2019-01-06T10:10:51.109Z,100564.27
2019-01-06T10:13:42.830Z,100563.36
2019-01-06T10:16:37.061Z,100564.74
2019-01-06T10:19:23.966Z,100570.78
2019-01-06T10:22:26.847Z,100570.98
2019-01-06T10:25:23.977Z,100572.69
2019-01-06T10:28:07.953Z,100578.38
2019-01-06T10:31:09.409Z,100579.04
2019-01-06T10:33:56.115Z,100573.28
2019-01-06T10:36:43.063Z,100577.56
2019-01-06T10:39:35.045Z,100570.41
2019-01-06T10:42:22.837Z,100571.03
2019-01-06T10:45:05.751Z,100567.77
2019-01-06T10:47:52.397Z,100571.73
2019-01-06T10:50:43.285Z,100568.16
2019-01-06T10:53:44.019Z,100568.64
2019-01-06T10:56:47.730Z,100570.03
2019-01-06T10:59:44.681Z,100570.17
2019-01-06T11:02:35.843Z,100567.30
2019-01-06T11:05:30.300Z,100563.75
2019-01-06T11:08:14.693Z,100562.11
2019-01-06T11:11:05.567Z,100570.55
2019-01-06T11:13:52.637Z,100565.29
2019-01-06T11:16:39.404Z,100562.92
2019-01-06T11:19:39.896Z,100562.72
2019-01-06T11:22:33.821Z,100564.41
2019-01-06T11:25:30.520Z,100558.08
2019-01-06T11:28:18.419Z,100562.41
2019-01-06T11:31:08.281Z,100564.36
2019-01-06T11:34:10.998Z,100564.67
2019-01-06T11:37:04.130Z,100567.08
2019-01-06T11:39:56.537Z,100558.71
2019-01-06T11:42:43.681Z,100562.65
2019-01-06T11:45:30.873Z,100562.87
2019-01-06T11:48:18.954Z,100562.80
2019-01-06T11:51:11.931Z,100559.22
2019-01-06T11:54:05.685Z,100560.61
2019-01-06T11:56:53.503Z,100555.13
2019-01-06T11:59:40.993Z,100556.25
2019-01-06T12:02:29.470Z,100551.55
2019-01-06T12:05:50.742Z,100561.25
2019-01-06T12:08:45.191Z,100558.85
2019-01-06T12:11:34.709Z,100556.50
2019-01-06T12:14:30.148Z,100550.37
2019-01-06T12:17:18.695Z,100551.06
2019-01-06T12:20:05.417Z,100557.34
2019-01-06T12:22:59.700Z,100553.34
2019-01-06T12:25:59.685Z,100553.67
2019-01-06T12:28:50.849Z,100553.94
2019-01-06T12:31:53.013Z,100560.74
2019-01-06T12:34:41.154Z,100551.22
2019-01-06T12:37:35.450Z,100561.01
2019-01-06T12:40:23.736Z,100555.02
2019-01-06T12:43:17.147Z,100556.13
2019-01-06T12:46:05.797Z,100548.22
2019-01-06T12:49:00.846Z,100556.83
2019-01-06T12:52:09.252Z,100556.97
2019-01-06T12:55:18.456Z,100558.06
2019-01-06T12:58:17.868Z,100563.96
2019-01-06T13:01:08.346Z,100567.04
2019-01-06T13:04:06.967Z,100570.33
2019-01-06T13:07:11.803Z,100564.99
2019-01-06T13:10:19.144Z,100573.57
2019-01-06T13:13:09.966Z,100574.38
2019-01-06T13:16:02.737Z,100577.47
2019-01-06T13:18:56.556Z,100577.88
2019-01-06T13:21:50.636Z,100583.61
2019-01-06T13:24:38.803Z,100594.03
2019-01-06T13:27:40.099Z,100565.90
2019-01-06T13:30:30.785Z,100593.61
2019-01-06T13:33:30.522Z,100591.70
2019-01-06T13:36:18.592Z,100604.79
2019-01-06T13:39:06.852Z,100606.59
2019-01-06T13:41:53.953Z,100615.72
2019-01-06T13:44:48.098Z,100616.04
2019-01-06T13:47:33.302Z,100618.36
2019-01-06T13:50:31.721Z,100616.44
2019-01-06T13:53:28.625Z,100614.48
2019-01-06T13:56:19.719Z,100620.40
2019-01-06T13:59:27.099Z,100617.34
2019-01-06T14:02:21.867Z,100622.25
2019-01-06T14:05:09.944Z,100625.91
2019-01-06T14:08:09.107Z,100622.25
2019-01-06T14:11:04.785Z,100621.30
2019-01-06T14:14:09.173Z,100618.55
2019-01-06T14:17:20.209Z,100626.27
2019-01-06T14:20:16.855Z,100627.77
2019-01-06T14:23:06.459Z,100624.95
2019-01-06T14:26:02.266Z,100627.61
2019-01-06T14:28:50.638Z,100624.94
2019-01-06T14:31:41.150Z,100626.19
2019-01-06T14:34:46.599Z,100631.02
2019-01-06T14:37:52.258Z,100640.28
2019-01-06T14:40:46.074Z,100639.48
2019-01-06T14:43:33.444Z,100646.55
2019-01-06T14:46:29.909Z,100637.39
2019-01-06T14:49:20.398Z,100637.72
2019-01-06T14:52:21.712Z,100636.31
2019-01-06T14:55:24.207Z,100640.68
2019-01-06T14:58:22.300Z,100639.77
2019-01-06T15:01:12.427Z,100637.95
2019-01-06T15:04:01.020Z,100640.72
2019-01-06T15:07:04.651Z,100638.45
2019-01-06T15:09:51.504Z,100640.20
2019-01-06T15:12:57.128Z,100639.02
2019-01-06T15:15:41.050Z,100642.05
2019-01-06T15:18:36.976Z,100646.64
2019-01-06T15:21:42.075Z,100646.18
2019-01-06T15:24:44.828Z,100654.06
2019-01-06T15:27:33.274Z,100659.67
2019-01-06T15:30:19.992Z,100659.38
2019-01-06T15:33:20.586Z,100666.19
2019-01-06T15:36:11.353Z,100664.09
2019-01-06T15:39:12.502Z,100653.98
2019-01-06T15:42:02.207Z,100654.36
2019-01-06T15:45:03.891Z,100652.12
2019-01-06T15:47:49.396Z,100661.48
2019-01-06T15:50:57.237Z,100664.73
2019-01-06T15:53:59.013Z,100660.07
2019-01-06T15:56:50.267Z,100664.53
2019-01-06T15:59:48.803Z,100671.03
2019-01-06T16:02:38.121Z,100673.98
2019-01-06T16:05:27.452Z,100676.81
2019-01-06T16:08:14.889Z,100671.22
2019-01-06T16:11:15.281Z,100673.86
2019-01-06T16:14:01.942Z,100678.56
2019-01-06T16:17:05.844Z,100678.91
2019-01-06T16:20:00.958Z,100680.42
2019-01-06T16:22:55.194Z,100686.79
2019-01-06T16:25:58.808Z,100684.11
2019-01-06T16:28:49.323Z,100678.98
2019-01-06T16:31:39.723Z,100673.62
2019-01-06T16:34:30.270Z,100679.75
2019-01-06T16:37:21.880Z,100673.60
2019-01-06T16:40:26.585Z,100678.88
2019-01-06T16:43:15.240Z,100680.11
2019-01-06T16:46:02.220Z,100679.42
2019-01-06T16:49:08.859Z,100680.45
2019-01-06T16:51:56.614Z,100681.13
2019-01-06T16:54:46.411Z,100677.02
2019-01-06T16:57:37.621Z,100683.22
2019-01-06T17:00:25.924Z,100678.20
2019-01-06T17:03:26.400Z,100682.39
2019-01-06T17:06:13.193Z,100677.55
2019-01-06T17:09:01.183Z,100676.73
2019-01-06T17:11:48.451Z,100678.23
2019-01-06T17:14:27.945Z,100676.47
2019-01-06T17:17:17.821Z,100676.88
2019-01-06T17:20:08.204Z,100669.65
2019-01-06T17:23:11.940Z,100671.81
2019-01-06T17:25:54.812Z,100675.56
2019-01-06T17:28:56.036Z,100677.65
2019-01-06T17:31:53.909Z,100674.95
2019-01-06T17:34:56.247Z,100677.02
2019-01-06T17:37:54.012Z,100687.24
2019-01-06T17:40:40.911Z,100687.09
2019-01-06T17:43:44.242Z,100690.51
2019-01-06T17:46:33.284Z,100692.18
2019-01-06T17:49:21.721Z,100689.69
2019-01-06T17:52:08.830Z,100690.41
2019-01-06T17:55:15.982Z,100696.72
2019-01-06T17:58:10.772Z,100693.77
2019-01-06T18:00:57.362Z,100695.81
2019-01-06T18:04:00.805Z,100693.14
2019-01-06T18:06:47.714Z,100702.86
2019-01-06T18:09:50.907Z,100698.09
2019-01-06T18:12:39.064Z,100702.86
2019-01-06T18:15:35.872Z,100702.71
2019-01-06T18:18:35.362Z,100702.86
2019-01-06T18:21:23.473Z,100704.04
2019-01-06T18:24:11.557Z,100701.06
2019-01-06T18:26:59.985Z,100703.11
2019-01-06T18:29:55.592Z,100704.58
2019-01-06T18:32:45.131Z,100701.84
2019-01-06T18:35:38.985Z,100697.61
2019-01-06T18:38:45.796Z,100698.33
2019-01-06T18:41:43.341Z,100694.37
2019-01-06T18:44:31.920Z,100705.18
2019-01-06T18:47:28.959Z,100700.91
2019-01-06T18:50:34.272Z,100705.95
2019-01-06T18:53:35.706Z,100712.66
2019-01-06T18:56:35.876Z,100709.79
2019-01-06T18:59:27.485Z,100707.50
2019-01-06T19:02:27.304Z,100711.39
2019-01-06T19:05:33.579Z,100714.41
2019-01-06T19:08:21.566Z,100716.23
2019-01-06T19:11:10.595Z,100717.38
2019-01-06T19:13:58.918Z,100716.65
2019-01-06T19:17:00.633Z,100719.46
2019-01-06T19:20:05.053Z,100722.21
2019-01-06T19:22:52.156Z,100727.37
2019-01-06T19:25:55.431Z,100724.79
2019-01-06T19:28:55.350Z,100722.76
2019-01-06T19:31:50.132Z,100730.88
2019-01-06T19:34:52.851Z,100725.73
2019-01-06T19:37:57.565Z,100730.98
2019-01-06T19:40:44.632Z,100731.11
2019-01-06T19:43:52.282Z,100736.74
2019-01-06T19:46:49.504Z,100734.61
2019-01-06T19:49:55.405Z,100741.59
2019-01-06T19:52:44.634Z,100732.95
2019-01-06T19:55:22.675Z,100741.25
2019-01-06T19:58:11.979Z,100742.13
2019-01-06T20:01:07.201Z,100740.53
2019-01-06T20:03:56.525Z,100747.67
2019-01-06T20:06:43.708Z,100744.06
2019-01-06T20:09:30.562Z,100748.28
2019-01-06T20:12:27.899Z,100752.95
2019-01-06T20:15:21.730Z,100743.83
2019-01-06T20:18:04.367Z,100739.39
2019-01-06T20:20:58.927Z,100746.63
2019-01-06T20:23:39.287Z,100747.84
2019-01-06T20:26:29.637Z,100738.50
2019-01-06T20:29:35.719Z,100736.25
2019-01-06T20:32:20.760Z,100736.98
2019-01-06T20:35:09.699Z,100731.77
2019-01-06T20:37:56.260Z,100741.84
2019-01-06T20:40:52.888Z,100741.64
2019-01-06T20:43:42.013Z,100740.38
2019-01-06T20:46:28.726Z,100714.73
2019-01-06T20:49:26.446Z,100745.21
2019-01-06T20:52:14.501Z,100743.84
2019-01-06T20:55:01.433Z,100730.05
2019-01-06T20:57:47.239Z,100738.50
2019-01-06T21:00:41.195Z,100741.14
2019-01-06T21:03:29.687Z,100743.45
2019-01-06T21:06:36.031Z,100743.02
2019-01-06T21:09:26.038Z,100739.05
2019-01-06T21:12:20.024Z,100740.21
2019-01-06T21:15:08.021Z,100748.98
2019-01-06T21:18:11.412Z,100748.98
2019-01-06T21:21:02.654Z,100758.33
2019-01-06T21:23:49.436Z,100753.72
2019-01-06T21:26:36.100Z,100751.62
2019-01-06T21:29:24.232Z,100746.68
2019-01-06T21:32:19.657Z,100747.40
2019-01-06T21:35:13.682Z,100747.88
2019-01-06T21:38:07.830Z,100750.70
2019-01-06T21:41:04.730Z,100756.63
2019-01-06T21:44:11.267Z,100755.18
2019-01-06T21:47:03.236Z,100754.86
2019-01-06T21:49:52.045Z,100756.02
2019-01-06T21:52:47.641Z,100757.88
2019-01-06T21:55:34.263Z,100757.93
2019-01-06T21:58:23.137Z,100756.55
2019-01-06T22:01:23.063Z,100760.89
2019-01-06T22:04:09.448Z,100760.71
2019-01-06T22:06:57.490Z,100769.48
2019-01-06T22:09:45.099Z,100759.58
2019-01-06T22:12:34.806Z,100765.72
2019-01-06T22:15:35.128Z,100772.10
2019-01-06T22:18:23.870Z,100769.62
2019-01-06T22:21:11.641Z,100768.42
2019-01-06T22:24:18.128Z,100766.56
2019-01-06T22:27:04.653Z,100765.45
2019-01-06T22:29:55.578Z,100757.48
2019-01-06T22:32:42.099Z,100754.25
2019-01-06T22:35:39.037Z,100754.38
2019-01-06T22:38:35.224Z,100751.28
2019-01-06T22:41:29.342Z,100758.94
2019-01-06T22:44:20.492Z,100751.09
2019-01-06T22:47:08.541Z,100753.52
2019-01-06T22:49:56.832Z,100751.05
2019-01-06T22:52:43.695Z,100754.84
2019-01-06T22:55:46.833Z,100753.14
2019-01-06T22:58:43.917Z,100746.50
2019-01-06T23:01:49.571Z,100740.42
2019-01-06T23:04:43.390Z,100750.51
2019-01-06T23:07:26.666Z,100749.95
2019-01-06T23:10:18.641Z,100744.90
2019-01-06T23:13:22.629Z,100742.66
2019-01-06T23:16:11.541Z,100741.48
2019-01-06T23:18:59.172Z,100737.85
2019-01-06T23:21:56.371Z,100739.62
2019-01-06T23:24:43.875Z,100744.28
2019-01-06T23:27:32.796Z,100746.25
2019-01-06T23:30:20.733Z,100752.83
2019-01-06T23:33:11.892Z,100749.83
2019-01-06T23:35:54.304Z,100748.16
2019-01-06T23:38:52.196Z,100750.64
2019-01-06T23:41:44.638Z,100743.09
2019-01-06T23:44:35.859Z,100748.94
2019-01-06T23:47:44.301Z,100742.94
2019-01-06T23:50:50.592Z,100746.86
2019-01-06T23:53:44.495Z,100737.98
2019-01-06T23:56:29.707Z,100735.44
2019-01-06T23:59:27.346Z,100741.93
